Terminal Aerodrome Forecast
Issued by NWS Twin Cities, MN

Home | Current Version | Previous Version | Text Only | Print | Product List | Glossary On
Versions: 1 2 3 4 5 6 7 8 9 10 11 12 13 14 15 16 17 18 19 20
000
FTUS43 KMPX 281733
TAFSTC
TAF
KSTC 281733Z 2818/2918 15014KT 4SM BR OVC006
     FM282200 15006KT 3SM BR OVC005
     FM290100 VRB03KT 2SM BR OVC003
      TEMPO 2901/2904 1SM -FZDZSN
     FM290400 32007KT 3SM BR OVC005
     FM290800 33015G24KT P6SM OVC009
     FM291200 32019G28KT P6SM OVC015=

USA.gov is the U.S. government's official web portal to all federal, state and local government web resources and services.